createdAt,value
2022-08-31T00:01:34.206Z,2.67
2022-08-31T00:04:03.348Z,2.63
2022-08-31T00:06:34.077Z,2.77
2022-08-31T00:09:04.111Z,2.63
2022-08-31T00:11:35.863Z,2.70
2022-08-31T00:14:13.067Z,2.60
2022-08-31T00:16:44.660Z,2.67
2022-08-31T00:19:13.130Z,2.60
2022-08-31T00:21:41.050Z,2.60
2022-08-31T00:24:10.574Z,2.50
2022-08-31T00:26:38.906Z,2.63
2022-08-31T00:29:06.950Z,2.60
2022-08-31T00:31:34.480Z,2.60
2022-08-31T00:34:04.582Z,2.70
2022-08-31T00:36:32.107Z,2.60
2022-08-31T00:38:59.826Z,2.60
2022-08-31T00:41:31.082Z,2.60
2022-08-31T00:44:05.113Z,2.53
2022-08-31T00:46:39.814Z,2.70
2022-08-31T00:49:24.198Z,2.70
2022-08-31T00:52:05.025Z,2.70
2022-08-31T00:54:41.323Z,2.60
2022-08-31T00:57:10.367Z,2.57
2022-08-31T00:59:41.493Z,2.60
2022-08-31T01:02:09.330Z,2.57
2022-08-31T01:04:39.446Z,2.53
2022-08-31T01:07:09.303Z,2.70
2022-08-31T01:09:55.712Z,2.57
2022-08-31T01:12:26.314Z,2.50
2022-08-31T01:14:54.195Z,2.77
2022-08-31T01:17:22.035Z,2.67
2022-08-31T01:20:16.731Z,2.60
2022-08-31T01:23:11.339Z,2.67
2022-08-31T01:25:42.302Z,2.57
2022-08-31T01:28:10.895Z,2.60
2022-08-31T01:30:40.395Z,2.43
2022-08-31T01:33:13.054Z,2.57
2022-08-31T01:35:44.921Z,2.67
2022-08-31T01:38:13.136Z,2.63
2022-08-31T01:40:50.840Z,2.47
2022-08-31T01:43:18.896Z,2.60
2022-08-31T01:45:46.677Z,2.60
2022-08-31T01:48:14.387Z,2.60
2022-08-31T01:50:41.948Z,2.60
2022-08-31T01:53:10.516Z,2.60
2022-08-31T01:55:38.210Z,2.60
2022-08-31T01:58:06.387Z,2.43
2022-08-31T02:01:10.644Z,2.60
2022-08-31T02:03:57.237Z,2.70
2022-08-31T02:06:25.688Z,2.73
2022-08-31T02:08:53.512Z,2.73
2022-08-31T02:11:21.018Z,2.70
2022-08-31T02:13:48.644Z,2.80
2022-08-31T02:16:16.666Z,2.70
2022-08-31T02:18:44.188Z,2.80
2022-08-31T02:21:13.667Z,3.10
2022-08-31T02:23:42.521Z,3.00
2022-08-31T02:26:10.468Z,2.93
2022-08-31T02:28:38.461Z,3.03
2022-08-31T02:31:06.154Z,3.03
2022-08-31T02:33:45.064Z,2.97
2022-08-31T02:36:12.933Z,2.90
2022-08-31T02:38:40.956Z,2.80
2022-08-31T02:41:09.833Z,2.80
2022-08-31T02:43:39.951Z,2.87
2022-08-31T02:46:07.570Z,2.90
2022-08-31T02:48:41.845Z,2.73
2022-08-31T02:51:13.105Z,2.80
2022-08-31T02:53:40.837Z,2.90
2022-08-31T02:56:08.493Z,2.70
2022-08-31T02:58:37.374Z,2.93
2022-08-31T03:01:05.193Z,2.70
2022-08-31T03:03:34.813Z,2.80
2022-08-31T03:06:02.638Z,2.80
2022-08-31T03:08:31.204Z,2.57
2022-08-31T03:11:00.449Z,2.77
2022-08-31T03:13:29.756Z,2.80
2022-08-31T03:15:57.762Z,3.20
2022-08-31T03:18:25.465Z,2.80
2022-08-31T03:20:52.954Z,2.80
2022-08-31T03:23:20.662Z,2.90
2022-08-31T03:25:48.642Z,3.00
2022-08-31T03:28:16.758Z,2.80
2022-08-31T03:30:58.480Z,2.97
2022-08-31T03:33:26.071Z,2.87
2022-08-31T03:35:53.479Z,2.90
2022-08-31T03:38:21.134Z,3.00
2022-08-31T03:40:50.892Z,2.80
2022-08-31T03:43:19.041Z,2.80
2022-08-31T03:45:47.129Z,2.97
2022-08-31T03:48:15.842Z,3.00
2022-08-31T03:50:45.965Z,2.83
2022-08-31T03:53:22.627Z,3.00
2022-08-31T03:55:53.838Z,3.07
2022-08-31T03:58:21.326Z,3.03
2022-08-31T04:00:49.037Z,3.07
2022-08-31T04:03:36.884Z,3.20
2022-08-31T04:06:29.796Z,3.17
2022-08-31T04:09:15.918Z,3.07
2022-08-31T04:12:19.286Z,3.00
2022-08-31T04:15:09.066Z,3.20
2022-08-31T04:18:11.960Z,3.20
2022-08-31T04:20:46.039Z,3.50
2022-08-31T04:23:14.548Z,3.50
2022-08-31T04:25:52.748Z,3.43
2022-08-31T04:28:20.287Z,3.40
2022-08-31T04:30:48.808Z,3.50
2022-08-31T04:33:16.903Z,3.60
2022-08-31T04:35:44.479Z,3.50
2022-08-31T04:38:12.559Z,3.53
2022-08-31T04:40:43.860Z,3.70
2022-08-31T04:43:11.794Z,3.87
2022-08-31T04:45:46.070Z,3.40
2022-08-31T04:48:14.033Z,3.43
2022-08-31T04:50:43.245Z,3.40
2022-08-31T04:53:11.382Z,3.90
2022-08-31T04:55:41.076Z,3.60
2022-08-31T04:58:10.041Z,3.70
2022-08-31T05:00:38.176Z,3.73
2022-08-31T05:03:24.168Z,3.80
2022-08-31T05:05:54.981Z,3.80
2022-08-31T05:08:22.583Z,3.67
2022-08-31T05:10:50.476Z,3.60
2022-08-31T05:13:18.171Z,4.00
2022-08-31T05:15:46.280Z,3.97
2022-08-31T05:18:19.520Z,3.70
2022-08-31T05:20:53.876Z,3.63
2022-08-31T05:23:21.340Z,3.73
2022-08-31T05:25:48.404Z,3.73
2022-08-31T05:28:16.616Z,3.87
2022-08-31T05:30:44.893Z,3.80
2022-08-31T05:33:23.544Z,3.53
2022-08-31T05:35:51.032Z,3.70
2022-08-31T05:38:18.478Z,3.77
2022-08-31T05:40:53.945Z,3.93
2022-08-31T05:43:22.524Z,4.10
2022-08-31T05:45:50.866Z,3.90
2022-08-31T05:48:18.352Z,3.50
2022-08-31T05:50:46.712Z,3.70
2022-08-31T05:53:15.580Z,3.80
2022-08-31T05:55:43.716Z,4.00
2022-08-31T05:58:11.454Z,4.03
2022-08-31T06:00:39.960Z,3.43
2022-08-31T06:03:27.385Z,3.47
2022-08-31T06:05:55.153Z,3.23
2022-08-31T06:08:27.120Z,3.33
2022-08-31T06:11:00.692Z,3.43
2022-08-31T06:13:28.529Z,3.23
2022-08-31T06:15:58.072Z,3.30
2022-08-31T06:18:26.233Z,3.13
2022-08-31T06:21:08.969Z,2.90
2022-08-31T06:23:39.582Z,2.80
2022-08-31T06:26:15.793Z,2.57
2022-08-31T06:28:46.649Z,2.47
2022-08-31T06:31:31.011Z,2.53
2022-08-31T06:33:59.401Z,2.60
2022-08-31T06:36:50.517Z,2.43
2022-08-31T06:39:37.086Z,2.67
2022-08-31T06:42:17.090Z,2.50
2022-08-31T06:45:05.945Z,2.70
2022-08-31T06:47:41.334Z,2.73
2022-08-31T06:50:10.095Z,2.70
2022-08-31T06:52:39.072Z,2.70
2022-08-31T06:55:35.826Z,2.67
2022-08-31T06:58:21.857Z,2.83
2022-08-31T07:01:10.112Z,2.90
2022-08-31T07:04:00.156Z,2.83
2022-08-31T07:06:44.527Z,2.90
2022-08-31T07:09:17.569Z,3.00
2022-08-31T07:11:52.051Z,3.07
2022-08-31T07:14:24.224Z,2.93
2022-08-31T07:16:56.436Z,2.97
2022-08-31T07:19:25.594Z,2.77
2022-08-31T07:21:57.107Z,2.83
2022-08-31T07:24:30.047Z,2.80
2022-08-31T07:27:04.304Z,2.87
2022-08-31T07:29:43.243Z,2.73
2022-08-31T07:32:15.431Z,2.63
2022-08-31T07:34:44.440Z,2.97
2022-08-31T07:37:44.066Z,3.20
2022-08-31T07:40:31.173Z,3.37
2022-08-31T07:43:04.517Z,4.07
2022-08-31T07:45:37.134Z,5.30
2022-08-31T07:48:07.100Z,5.77
2022-08-31T07:50:57.529Z,4.83
2022-08-31T07:53:47.397Z,4.07
2022-08-31T07:56:25.649Z,3.47
2022-08-31T07:59:11.051Z,3.37
2022-08-31T08:03:43.958Z,3.03
2022-08-31T08:06:32.551Z,3.30
2022-08-31T08:09:25.284Z,3.80
2022-08-31T08:12:04.755Z,3.87
2022-08-31T08:14:43.743Z,3.80
2022-08-31T08:17:24.107Z,4.20
2022-08-31T08:20:13.875Z,3.97
2022-08-31T08:22:55.005Z,3.90
2022-08-31T08:25:35.175Z,3.67
2022-08-31T08:28:17.417Z,3.70
2022-08-31T08:30:54.327Z,4.00
2022-08-31T08:33:25.105Z,3.50
2022-08-31T08:36:07.137Z,3.67
2022-08-31T08:38:47.175Z,3.50
2022-08-31T08:41:27.269Z,2.83
2022-08-31T08:44:00.697Z,2.77
2022-08-31T08:46:49.626Z,2.27
2022-08-31T08:49:41.659Z,1.90
2022-08-31T08:52:41.401Z,2.00
2022-08-31T08:55:16.248Z,2.00
2022-08-31T08:57:47.604Z,1.80
2022-08-31T09:00:28.414Z,1.83
2022-08-31T09:03:20.474Z,2.00
2022-08-31T09:06:27.320Z,2.20
2022-08-31T09:09:34.649Z,1.90
2022-08-31T09:12:50.652Z,1.90
2022-08-31T09:15:53.178Z,2.23
2022-08-31T09:19:05.497Z,1.87
2022-08-31T09:21:44.205Z,1.83
2022-08-31T09:24:16.921Z,1.83
2022-08-31T09:27:18.630Z,1.83
2022-08-31T09:29:59.391Z,1.90
2022-08-31T09:32:35.525Z,2.10
2022-08-31T09:35:23.729Z,2.07
2022-08-31T09:38:09.836Z,2.20
2022-08-31T09:40:53.041Z,2.30
2022-08-31T09:43:38.388Z,2.17
2022-08-31T09:46:05.748Z,2.20
2022-08-31T09:48:56.059Z,2.50
2022-08-31T09:51:30.574Z,2.30
2022-08-31T09:54:29.127Z,2.60
2022-08-31T09:56:59.585Z,2.90
2022-08-31T09:59:51.449Z,2.47
2022-08-31T10:02:26.093Z,2.30
2022-08-31T10:05:03.809Z,3.07
2022-08-31T10:08:04.328Z,2.30
2022-08-31T10:10:38.519Z,2.33
2022-08-31T10:13:24.746Z,2.30
2022-08-31T10:16:11.819Z,2.70
2022-08-31T10:19:06.411Z,2.60
2022-08-31T10:21:53.672Z,3.00
2022-08-31T10:24:33.238Z,3.13
2022-08-31T10:27:23.619Z,3.37
2022-08-31T10:30:05.639Z,2.97
2022-08-31T10:33:15.675Z,3.20
2022-08-31T10:35:57.898Z,2.63
2022-08-31T10:38:46.367Z,2.70
2022-08-31T10:41:40.812Z,2.60
2022-08-31T10:44:49.772Z,2.60
2022-08-31T10:47:32.670Z,2.50
2022-08-31T10:50:05.458Z,2.20
2022-08-31T10:53:10.903Z,2.43
2022-08-31T10:55:53.223Z,2.30
2022-08-31T10:59:37.519Z,2.60
2022-08-31T11:02:46.394Z,2.77
2022-08-31T11:05:30.201Z,2.43
2022-08-31T11:08:22.011Z,2.43
2022-08-31T11:10:55.429Z,2.60
2022-08-31T11:14:02.159Z,2.50
2022-08-31T11:17:12.194Z,2.40
2022-08-31T11:20:26.752Z,2.80
2022-08-31T11:23:14.504Z,2.73
2022-08-31T11:26:16.644Z,3.10
2022-08-31T11:28:54.204Z,2.63
2022-08-31T11:31:27.311Z,2.80
2022-08-31T11:34:16.955Z,3.07
2022-08-31T11:37:04.868Z,3.30
2022-08-31T11:39:36.659Z,3.17
2022-08-31T11:42:12.257Z,3.37
2022-08-31T11:44:41.650Z,3.47
2022-08-31T11:47:29.308Z,3.63
2022-08-31T11:50:36.215Z,3.97
2022-08-31T11:53:44.113Z,3.97
2022-08-31T11:56:15.100Z,4.40
2022-08-31T11:58:48.029Z,4.40
2022-08-31T12:01:18.929Z,3.83
2022-08-31T12:03:56.525Z,4.07
2022-08-31T12:06:32.005Z,3.70
2022-08-31T12:09:28.718Z,4.20
2022-08-31T12:12:37.901Z,4.10
2022-08-31T12:15:45.624Z,3.70
2022-08-31T12:18:39.141Z,3.97
2022-08-31T12:21:56.275Z,4.07
2022-08-31T12:25:01.942Z,3.80
2022-08-31T12:28:05.841Z,3.93
2022-08-31T12:30:33.357Z,4.30
2022-08-31T12:33:15.441Z,4.00
2022-08-31T12:35:45.330Z,3.80
2022-08-31T12:38:23.007Z,3.90
2022-08-31T12:40:56.840Z,3.50
2022-08-31T12:43:51.605Z,3.20
2022-08-31T12:46:49.718Z,3.03
2022-08-31T12:49:49.350Z,2.60
2022-08-31T12:53:08.739Z,2.90
2022-08-31T12:55:54.817Z,2.30
2022-08-31T12:58:46.970Z,2.10
2022-08-31T13:01:21.163Z,2.10
2022-08-31T13:03:55.398Z,2.40
2022-08-31T13:06:32.397Z,2.00
2022-08-31T13:09:01.795Z,2.70
2022-08-31T13:11:43.017Z,4.03
2022-08-31T13:14:25.196Z,4.33
2022-08-31T13:17:07.437Z,5.30
2022-08-31T13:19:38.278Z,3.20
2022-08-31T13:22:17.102Z,2.77
2022-08-31T13:24:53.903Z,2.67
2022-08-31T13:27:27.395Z,3.20
2022-08-31T13:30:13.798Z,2.77
2022-08-31T13:32:45.959Z,2.90
2022-08-31T13:35:19.186Z,3.67
2022-08-31T13:38:06.010Z,4.53
2022-08-31T13:40:37.758Z,4.13
2022-08-31T13:43:10.543Z,3.90
2022-08-31T13:45:58.110Z,3.40
2022-08-31T13:48:40.482Z,3.37
2022-08-31T13:51:20.503Z,4.30
2022-08-31T13:54:11.380Z,5.67
2022-08-31T13:56:58.865Z,5.50
2022-08-31T13:59:34.894Z,4.40
2022-08-31T14:02:16.088Z,3.80
2022-08-31T14:04:43.900Z,4.00
2022-08-31T14:07:21.347Z,4.80
2022-08-31T14:10:26.107Z,5.73
2022-08-31T14:13:14.410Z,6.30
2022-08-31T14:15:53.372Z,5.83
2022-08-31T14:18:38.976Z,6.90
2022-08-31T14:21:23.430Z,6.70
2022-08-31T14:24:00.856Z,6.63
2022-08-31T14:26:32.076Z,5.93
2022-08-31T14:29:10.768Z,6.83
2022-08-31T14:31:52.611Z,5.60
2022-08-31T14:34:30.042Z,5.87
2022-08-31T14:37:03.939Z,5.43
2022-08-31T14:39:33.267Z,5.37
2022-08-31T14:42:06.179Z,4.90
2022-08-31T14:44:41.207Z,5.07
2022-08-31T14:47:09.671Z,5.30
2022-08-31T14:49:40.972Z,4.50
2022-08-31T14:52:09.349Z,5.17
2022-08-31T14:54:37.882Z,5.30
2022-08-31T14:57:12.642Z,5.37
2022-08-31T14:59:43.308Z,5.27
2022-08-31T15:02:16.532Z,5.13
2022-08-31T15:04:45.860Z,6.10
2022-08-31T15:07:15.780Z,6.30
2022-08-31T15:09:47.604Z,6.20
2022-08-31T15:12:17.873Z,5.20
2022-08-31T15:14:46.945Z,5.00
2022-08-31T15:17:19.778Z,4.80
2022-08-31T15:19:50.180Z,3.60
2022-08-31T15:22:18.110Z,3.20
2022-08-31T15:24:45.343Z,3.00
2022-08-31T15:27:16.038Z,3.07
2022-08-31T15:29:46.632Z,3.00
2022-08-31T15:32:18.357Z,2.73
2022-08-31T15:34:57.834Z,2.63
2022-08-31T15:37:31.735Z,2.53
2022-08-31T15:40:04.064Z,2.40
2022-08-31T15:42:36.583Z,2.50
2022-08-31T15:45:05.736Z,2.60
2022-08-31T15:47:58.080Z,2.70
2022-08-31T15:50:31.854Z,2.63
2022-08-31T15:53:08.846Z,2.87
2022-08-31T15:55:40.750Z,3.20
2022-08-31T15:58:09.774Z,3.67
2022-08-31T16:00:41.501Z,3.60
2022-08-31T16:03:09.973Z,3.83
2022-08-31T16:05:43.430Z,4.00
2022-08-31T16:08:13.043Z,4.57
2022-08-31T16:10:48.005Z,5.10
2022-08-31T16:13:16.136Z,4.80
2022-08-31T16:15:51.035Z,5.03
2022-08-31T16:18:21.716Z,5.50
2022-08-31T16:20:50.368Z,5.53
2022-08-31T16:23:18.481Z,5.27
2022-08-31T16:25:48.117Z,5.40
2022-08-31T16:28:21.018Z,6.00
2022-08-31T16:30:51.038Z,5.10
2022-08-31T16:33:19.465Z,5.40
2022-08-31T16:35:47.673Z,5.30
2022-08-31T16:38:15.982Z,5.37
2022-08-31T16:40:44.294Z,5.87
2022-08-31T16:43:12.065Z,6.57
2022-08-31T16:45:41.459Z,6.47
2022-08-31T16:48:30.053Z,6.10
2022-08-31T16:51:01.877Z,6.30
2022-08-31T16:53:30.579Z,6.20
2022-08-31T16:55:59.689Z,5.90
2022-08-31T16:58:50.060Z,5.80
2022-08-31T17:01:21.869Z,5.30
2022-08-31T17:04:01.990Z,4.80
2022-08-31T17:06:34.910Z,4.10
2022-08-31T17:09:08.553Z,3.93
2022-08-31T17:11:47.258Z,4.03
2022-08-31T17:14:22.719Z,4.10
2022-08-31T17:16:50.769Z,3.80
2022-08-31T17:19:19.821Z,3.93
2022-08-31T17:21:50.365Z,3.67
2022-08-31T17:24:28.235Z,3.57
2022-08-31T17:27:01.830Z,3.57
2022-08-31T17:29:43.947Z,3.57
2022-08-31T17:32:16.139Z,3.53
2022-08-31T17:34:44.530Z,3.87
2022-08-31T17:37:15.190Z,3.90
2022-08-31T17:39:45.003Z,4.07
2022-08-31T17:42:15.634Z,4.77
2022-08-31T17:44:47.838Z,4.37
2022-08-31T17:47:16.532Z,4.83
2022-08-31T17:49:46.622Z,5.10
2022-08-31T17:52:14.656Z,4.67
2022-08-31T17:54:43.147Z,6.50
2022-08-31T17:57:15.250Z,5.73
2022-08-31T17:59:46.594Z,5.67
2022-08-31T18:02:22.655Z,6.27
2022-08-31T18:04:52.166Z,5.93
2022-08-31T18:07:20.429Z,5.90
2022-08-31T18:09:48.007Z,6.07
2022-08-31T18:12:17.987Z,6.07
2022-08-31T18:14:45.527Z,6.03
2022-08-31T18:17:16.062Z,5.93
2022-08-31T18:19:44.718Z,6.70
2022-08-31T18:22:14.045Z,5.80
2022-08-31T18:24:42.435Z,6.03
2022-08-31T18:27:14.952Z,6.53
2022-08-31T18:29:44.020Z,5.57
2022-08-31T18:32:12.283Z,5.33
2022-08-31T18:34:46.977Z,5.13
2022-08-31T18:37:17.380Z,5.07
2022-08-31T18:40:06.464Z,5.37
2022-08-31T18:42:56.917Z,4.33
2022-08-31T18:45:27.440Z,5.10
2022-08-31T18:48:23.180Z,5.03
2022-08-31T18:50:47.624Z,4.60
2022-08-31T18:53:28.362Z,4.50
2022-08-31T18:56:10.205Z,4.50
2022-08-31T18:58:38.628Z,4.27
2022-08-31T19:01:10.057Z,5.10
2022-08-31T19:03:38.082Z,4.60
2022-08-31T19:06:06.884Z,5.10
2022-08-31T19:08:35.412Z,5.10
2022-08-31T19:11:07.146Z,4.63
2022-08-31T19:13:34.688Z,5.20
2022-08-31T19:16:10.915Z,4.93
2022-08-31T19:18:44.032Z,4.77
2022-08-31T19:21:19.525Z,5.00
2022-08-31T19:23:48.657Z,4.73
2022-08-31T19:26:34.098Z,4.97
2022-08-31T19:29:02.861Z,5.10
2022-08-31T19:31:30.468Z,5.40
2022-08-31T19:33:58.006Z,4.87
2022-08-31T19:36:27.327Z,5.50
2022-08-31T19:38:56.121Z,5.30
2022-08-31T19:41:27.202Z,4.97
2022-08-31T19:44:05.649Z,5.30
2022-08-31T19:46:40.327Z,4.47
2022-08-31T19:49:11.693Z,4.40
2022-08-31T19:51:44.686Z,4.17
2022-08-31T19:54:12.705Z,4.53
2022-08-31T19:56:43.530Z,4.20
2022-08-31T19:59:17.924Z,5.20
2022-08-31T20:01:48.554Z,4.10
2022-08-31T20:04:17.670Z,4.27
2022-08-31T20:06:48.010Z,3.83
2022-08-31T20:09:17.483Z,4.40
2022-08-31T20:11:47.507Z,4.27
2022-08-31T20:14:17.002Z,4.73
2022-08-31T20:16:46.567Z,4.73
2022-08-31T20:19:20.519Z,4.90
2022-08-31T20:21:53.731Z,4.37
2022-08-31T20:24:25.322Z,5.47
2022-08-31T20:27:09.003Z,4.83
2022-08-31T20:29:38.643Z,5.10
2022-08-31T20:32:07.802Z,5.00
2022-08-31T20:34:37.211Z,4.93
2022-08-31T20:37:05.658Z,5.00
2022-08-31T20:39:35.160Z,5.20
2022-08-31T20:42:03.524Z,5.33
2022-08-31T20:44:35.179Z,5.23
2022-08-31T20:47:26.206Z,5.17
2022-08-31T20:49:59.029Z,5.03
2022-08-31T20:52:31.771Z,5.07
2022-08-31T20:55:02.997Z,5.40
2022-08-31T20:57:37.475Z,5.20
2022-08-31T21:00:10.044Z,5.73
2022-08-31T21:02:39.632Z,4.80
2022-08-31T21:05:37.562Z,4.77
2022-08-31T21:07:59.432Z,4.83
2022-08-31T21:10:36.617Z,4.93
2022-08-31T21:13:07.535Z,4.93
2022-08-31T21:15:35.223Z,4.57
2022-08-31T21:18:02.926Z,4.57
2022-08-31T21:20:32.292Z,5.07
2022-08-31T21:22:59.761Z,5.07
2022-08-31T21:25:27.256Z,5.07
2022-08-31T21:27:54.708Z,5.40
2022-08-31T21:30:22.177Z,5.70
2022-08-31T21:32:49.728Z,4.40
2022-08-31T21:35:19.184Z,5.37
2022-08-31T21:37:47.032Z,5.07
2022-08-31T21:40:14.703Z,5.10
2022-08-31T21:42:42.221Z,4.53
2022-08-31T21:45:10.680Z,4.97
2022-08-31T21:47:37.695Z,4.77
2022-08-31T21:50:05.696Z,5.03
2022-08-31T21:52:33.521Z,4.93
2022-08-31T21:55:05.496Z,5.23
2022-08-31T21:57:32.971Z,5.03
2022-08-31T22:00:01.612Z,4.73
2022-08-31T22:02:29.465Z,4.57
2022-08-31T22:04:57.046Z,4.63
2022-08-31T22:07:25.465Z,4.57
2022-08-31T22:09:54.460Z,4.23
2022-08-31T22:12:23.797Z,4.50
2022-08-31T22:14:51.319Z,4.50
2022-08-31T22:17:18.920Z,4.30
2022-08-31T22:19:46.420Z,4.57
2022-08-31T22:22:15.141Z,4.10
2022-08-31T22:24:42.834Z,4.13
2022-08-31T22:27:12.013Z,4.17
2022-08-31T22:31:21.806Z,4.13
2022-08-31T22:32:28.094Z,4.27
2022-08-31T22:34:55.517Z,4.03
2022-08-31T22:37:23.822Z,4.33
2022-08-31T22:39:52.765Z,4.27
2022-08-31T22:42:20.221Z,4.37
2022-08-31T22:44:47.714Z,4.50
2022-08-31T22:47:15.314Z,4.87
2022-08-31T22:49:42.768Z,4.27
2022-08-31T22:52:13.016Z,4.37
2022-08-31T22:54:44.610Z,4.13
2022-08-31T22:57:12.036Z,4.80
2022-08-31T22:59:39.594Z,4.33
2022-08-31T23:02:07.370Z,3.87
2022-08-31T23:04:35.348Z,4.20
2022-08-31T23:07:04.143Z,4.20
2022-08-31T23:09:33.826Z,4.00
2022-08-31T23:12:04.506Z,4.03
2022-08-31T23:14:32.578Z,4.30
2022-08-31T23:17:05.250Z,3.80
2022-08-31T23:19:42.178Z,4.40
2022-08-31T23:22:15.187Z,4.13
2022-08-31T23:24:51.182Z,4.30
2022-08-31T23:27:21.616Z,4.50
2022-08-31T23:29:55.852Z,4.00
2022-08-31T23:32:34.862Z,4.10
2022-08-31T23:35:03.378Z,4.23
2022-08-31T23:37:32.096Z,4.37
2022-08-31T23:40:00.639Z,4.27
2022-08-31T23:42:29.263Z,3.97
2022-08-31T23:44:57.489Z,4.40
2022-08-31T23:47:28.927Z,4.50
2022-08-31T23:49:57.849Z,4.00
2022-08-31T23:52:29.505Z,4.27
2022-08-31T23:54:59.226Z,4.20
2022-08-31T23:57:32.735Z,4.43
